createdAt,value
2018-03-23T00:00:39.475Z,35.57
2018-03-23T00:03:06.905Z,39.73
2018-03-23T00:05:34.328Z,37.03
2018-03-23T00:08:02.515Z,37.30
2018-03-23T00:10:29.947Z,37.43
2018-03-23T00:12:57.371Z,32.43
2018-03-23T00:15:25.562Z,32.73
2018-03-23T00:17:52.991Z,34.60
2018-03-23T00:20:20.412Z,35.60
2018-03-23T00:22:48.604Z,35.90
2018-03-23T00:25:16.032Z,35.60
2018-03-23T00:27:43.456Z,32.93
2018-03-23T00:30:11.640Z,33.17
2018-03-23T00:32:39.064Z,32.93
2018-03-23T00:35:06.496Z,35.00
2018-03-23T00:37:34.725Z,31.40
2018-03-23T00:40:02.156Z,37.33
2018-03-23T00:42:29.587Z,31.73
2018-03-23T00:44:57.024Z,31.80
2018-03-23T00:47:24.445Z,38.47
2018-03-23T00:49:51.868Z,34.97
2018-03-23T00:52:19.298Z,35.87
2018-03-23T00:54:46.717Z,37.13
2018-03-23T00:57:14.151Z,40.77
2018-03-23T00:59:41.596Z,38.50
2018-03-23T01:02:09.029Z,39.97
2018-03-23T01:04:36.444Z,41.80
2018-03-23T01:07:03.864Z,36.73
2018-03-23T01:09:31.356Z,40.80
2018-03-23T01:11:58.779Z,39.23
2018-03-23T01:14:26.202Z,43.63
2018-03-23T01:16:53.632Z,48.57
2018-03-23T01:19:21.051Z,50.77
2018-03-23T01:21:49.272Z,48.93
2018-03-23T01:24:16.708Z,47.00
2018-03-23T01:26:44.135Z,53.63
2018-03-23T01:29:11.556Z,47.10
2018-03-23T01:31:38.979Z,49.50
2018-03-23T01:34:06.399Z,54.37
2018-03-23T01:36:33.920Z,59.57
2018-03-23T01:39:01.347Z,56.17
2018-03-23T01:41:28.804Z,49.90
2018-03-23T01:43:56.216Z,48.00
2018-03-23T01:46:23.656Z,48.83
2018-03-23T01:48:51.093Z,45.77
2018-03-23T01:51:18.516Z,50.47
2018-03-23T01:53:46.714Z,44.60
2018-03-23T01:56:14.136Z,44.30
2018-03-23T01:58:41.576Z,46.73
2018-03-23T02:01:09.003Z,48.67
2018-03-23T02:03:36.423Z,46.57
2018-03-23T02:06:04.620Z,41.87
2018-03-23T02:08:32.037Z,51.10
2018-03-23T02:11:00.238Z,51.67
2018-03-23T02:13:27.668Z,48.33
2018-03-23T02:15:55.095Z,53.63
2018-03-23T02:18:22.515Z,54.53
2018-03-23T02:20:50.712Z,47.10
2018-03-23T02:23:18.139Z,42.47
2018-03-23T02:25:45.565Z,57.30
2018-03-23T02:28:13.752Z,60.23
2018-03-23T02:30:45.083Z,58.60
2018-03-23T02:33:12.533Z,60.33
2018-03-23T02:35:39.992Z,61.77
2018-03-23T02:38:07.416Z,60.00
2018-03-23T02:40:34.859Z,73.93
2018-03-23T02:43:02.296Z,75.17
2018-03-23T02:45:29.777Z,73.73
2018-03-23T02:47:57.196Z,86.33
2018-03-23T02:50:24.620Z,91.67
2018-03-23T02:52:52.073Z,81.40
2018-03-23T02:55:19.489Z,79.27
2018-03-23T02:57:46.924Z,72.07
2018-03-23T03:00:14.349Z,69.90
2018-03-23T03:02:41.860Z,65.77
2018-03-23T03:05:09.300Z,64.70
2018-03-23T03:07:36.753Z,76.47
2018-03-23T03:10:04.177Z,94.20
2018-03-23T03:12:31.609Z,79.73
2018-03-23T03:14:59.036Z,86.30
2018-03-23T03:17:26.462Z,76.13
2018-03-23T03:19:53.880Z,79.73
2018-03-23T03:22:22.079Z,72.73
2018-03-23T03:24:49.510Z,64.23
2018-03-23T03:27:16.924Z,62.63
2018-03-23T03:29:45.144Z,57.87
2018-03-23T03:32:12.572Z,60.07
2018-03-23T03:34:39.999Z,60.00
2018-03-23T03:37:07.431Z,56.87
2018-03-23T03:39:34.855Z,53.73
2018-03-23T03:42:03.039Z,47.77
2018-03-23T03:44:30.476Z,46.63
2018-03-23T03:46:57.931Z,54.70
2018-03-23T03:49:25.359Z,52.93
2018-03-23T03:51:52.775Z,51.93
2018-03-23T03:54:20.972Z,50.03
2018-03-23T03:56:48.396Z,48.80
2018-03-23T03:59:15.816Z,54.67
2018-03-23T04:01:44.024Z,55.50
2018-03-23T04:04:11.464Z,59.27
2018-03-23T04:06:38.888Z,52.90
2018-03-23T04:09:06.308Z,58.07
2018-03-23T04:11:34.512Z,58.87
2018-03-23T04:14:01.932Z,65.87
2018-03-23T04:16:29.354Z,56.97
2018-03-23T04:18:57.555Z,61.13
2018-03-23T04:21:25.003Z,57.10
2018-03-23T04:23:52.418Z,68.33
2018-03-23T04:26:19.852Z,61.70
2018-03-23T04:28:47.292Z,52.57
2018-03-23T04:31:14.719Z,60.40
2018-03-23T04:33:42.147Z,47.03
2018-03-23T04:36:10.357Z,49.93
2018-03-23T04:38:37.804Z,48.70
2018-03-23T04:41:05.232Z,46.93
2018-03-23T04:43:32.666Z,42.07
2018-03-23T04:46:00.132Z,44.30
2018-03-23T04:48:27.560Z,52.30
2018-03-23T04:50:54.967Z,49.23
2018-03-23T04:53:23.151Z,48.17
2018-03-23T04:55:50.592Z,49.17
2018-03-23T04:58:18.028Z,47.00
2018-03-23T05:00:45.455Z,45.43
2018-03-23T05:03:12.891Z,45.90
2018-03-23T05:05:41.092Z,41.63
2018-03-23T05:08:08.521Z,39.00
2018-03-23T05:10:35.975Z,39.13
2018-03-23T05:13:03.396Z,42.50
2018-03-23T05:15:30.817Z,38.83
2018-03-23T05:17:59.008Z,37.27
2018-03-23T05:20:26.432Z,36.10
2018-03-23T05:22:53.872Z,34.33
2018-03-23T05:25:21.304Z,36.70
2018-03-23T05:27:49.627Z,33.77
2018-03-23T05:30:17.055Z,38.10
2018-03-23T05:32:44.476Z,48.30
2018-03-23T05:35:11.911Z,52.43
2018-03-23T05:37:39.332Z,57.90
2018-03-23T05:40:07.527Z,59.63
2018-03-23T05:42:34.940Z,54.80
2018-03-23T05:45:02.384Z,61.60
2018-03-23T05:47:29.804Z,53.13
2018-03-23T05:49:57.994Z,48.23
2018-03-23T05:52:25.425Z,49.67
2018-03-23T05:54:52.855Z,54.57
2018-03-23T05:57:20.276Z,56.07
2018-03-23T05:59:48.460Z,53.13
2018-03-23T06:02:15.889Z,56.33
2018-03-23T06:04:44.072Z,44.37
2018-03-23T06:07:11.497Z,43.17
2018-03-23T06:09:38.916Z,42.60
2018-03-23T06:12:06.344Z,41.23
2018-03-23T06:14:33.759Z,48.90
2018-03-23T06:17:01.192Z,41.07
2018-03-23T06:19:28.618Z,42.80
2018-03-23T06:21:56.040Z,39.53
2018-03-23T06:24:24.229Z,41.43
2018-03-23T06:26:51.660Z,44.27
2018-03-23T06:29:19.088Z,41.67
2018-03-23T06:31:46.507Z,38.33
2018-03-23T06:34:14.741Z,36.47
2018-03-23T06:36:42.167Z,34.70
2018-03-23T06:39:09.590Z,34.27
2018-03-23T06:41:37.025Z,35.40
2018-03-23T06:44:04.456Z,36.43
2018-03-23T06:46:32.649Z,36.13
2018-03-23T06:49:00.081Z,35.13
2018-03-23T06:51:27.500Z,37.77
2018-03-23T06:53:54.923Z,33.73
2018-03-23T06:56:23.111Z,34.07
2018-03-23T06:58:50.540Z,31.83
2018-03-23T07:01:17.969Z,30.67
2018-03-23T07:03:46.163Z,32.63
2018-03-23T07:06:13.583Z,34.37
2018-03-23T07:08:41.058Z,37.37
2018-03-23T07:11:08.527Z,31.73
2018-03-23T07:13:36.728Z,29.87
2018-03-23T07:16:04.163Z,29.57
2018-03-23T07:18:32.348Z,28.10
2018-03-23T07:20:59.772Z,32.27
2018-03-23T07:23:27.244Z,29.30
2018-03-23T07:25:54.676Z,24.70
2018-03-23T07:28:22.120Z,29.50
2018-03-23T07:30:49.540Z,29.57
2018-03-23T07:33:16.964Z,29.13
2018-03-23T07:35:45.152Z,29.40
2018-03-23T07:38:12.576Z,22.37
2018-03-23T07:40:40.049Z,25.20
2018-03-23T07:43:07.472Z,22.50
2018-03-23T07:45:34.892Z,21.73
2018-03-23T07:48:03.083Z,22.50
2018-03-23T07:50:30.516Z,22.17
2018-03-23T07:52:57.943Z,25.90
2018-03-23T07:55:25.359Z,20.83
2018-03-23T07:57:53.580Z,23.67
2018-03-23T08:00:20.991Z,21.90
2018-03-23T08:02:48.425Z,21.03
2018-03-23T08:05:15.904Z,22.93
2018-03-23T08:07:43.324Z,23.10
2018-03-23T08:10:10.753Z,29.67
2018-03-23T08:12:38.181Z,20.03
2018-03-23T08:15:06.388Z,14.30
2018-03-23T08:17:33.803Z,14.93
2018-03-23T08:20:01.227Z,17.80
2018-03-23T08:22:29.425Z,18.30
2018-03-23T08:24:56.853Z,17.73
2018-03-23T08:27:24.271Z,20.30
2018-03-23T08:29:51.692Z,23.17
2018-03-23T08:32:19.900Z,18.23
2018-03-23T08:34:48.079Z,19.20
2018-03-23T08:37:15.504Z,18.77
2018-03-23T08:39:42.948Z,17.53
2018-03-23T08:42:10.363Z,16.67
2018-03-23T08:44:37.808Z,18.10
2018-03-23T08:47:05.979Z,13.77
2018-03-23T08:49:33.425Z,19.23
2018-03-23T08:52:00.839Z,10.60
2018-03-23T08:54:28.424Z,10.50
2018-03-23T08:56:55.843Z,10.40
2018-03-23T08:59:23.276Z,9.67
2018-03-23T09:01:50.692Z,9.37
2018-03-23T09:04:18.892Z,10.83
2018-03-23T09:06:46.324Z,10.47
2018-03-23T09:09:13.743Z,9.50
2018-03-23T09:11:41.159Z,9.17
2018-03-23T09:14:08.600Z,8.40
2018-03-23T09:16:36.068Z,7.67
2018-03-23T09:19:03.429Z,8.70
2018-03-23T09:21:30.855Z,9.80
2018-03-23T09:23:58.270Z,6.40
2018-03-23T09:26:25.690Z,6.60
2018-03-23T09:28:53.104Z,8.23
2018-03-23T09:31:20.531Z,8.57
2018-03-23T09:33:47.964Z,8.50
2018-03-23T09:36:15.372Z,7.77
2018-03-23T09:38:42.808Z,7.10
2018-03-23T09:41:11.744Z,7.27
2018-03-23T09:43:39.197Z,8.10
2018-03-23T09:46:06.620Z,8.63
2018-03-23T09:48:34.046Z,13.93
2018-03-23T09:51:01.463Z,13.80
2018-03-23T09:53:29.672Z,17.07
2018-03-23T09:55:57.092Z,14.67
2018-03-23T09:58:24.524Z,14.07
2018-03-23T10:00:52.720Z,16.17
2018-03-23T10:03:20.150Z,22.53
2018-03-23T10:05:47.572Z,22.67
2018-03-23T10:08:14.992Z,27.23
2018-03-23T10:10:43.189Z,24.30
2018-03-23T10:13:10.604Z,25.90
2018-03-23T10:15:38.028Z,29.97
2018-03-23T10:18:05.448Z,29.20
2018-03-23T10:20:32.880Z,25.20
2018-03-23T10:23:00.315Z,25.10
2018-03-23T10:25:27.742Z,24.90
2018-03-23T10:27:55.172Z,30.13
2018-03-23T10:30:22.679Z,18.93
2018-03-23T10:32:50.099Z,18.90
2018-03-23T10:35:17.524Z,16.00
2018-03-23T10:37:44.957Z,17.63
2018-03-23T10:40:12.372Z,16.87
2018-03-23T10:42:39.812Z,11.87
2018-03-23T10:45:07.244Z,13.27
2018-03-23T10:47:35.552Z,11.67
2018-03-23T10:50:02.992Z,12.80
2018-03-23T10:52:30.415Z,10.07
2018-03-23T10:54:57.827Z,12.47
2018-03-23T10:57:26.025Z,12.77
2018-03-23T10:59:53.457Z,11.07
2018-03-23T11:05:23.785Z,12.03
2018-03-23T11:07:51.196Z,11.17
2018-03-23T11:10:18.622Z,9.90
2018-03-23T11:12:46.808Z,8.80
2018-03-23T11:15:14.234Z,9.63
2018-03-23T11:17:42.431Z,10.03
2018-03-23T11:20:09.859Z,10.13
2018-03-23T11:22:37.284Z,7.50
2018-03-23T11:25:04.713Z,9.60
2018-03-23T11:27:32.120Z,6.40
2018-03-23T11:29:59.535Z,3.80
2018-03-23T11:32:26.972Z,5.33
2018-03-23T11:34:54.405Z,4.60
2018-03-23T11:37:21.819Z,4.70
2018-03-23T11:39:49.256Z,6.53
2018-03-23T11:42:16.704Z,5.40
2018-03-23T11:44:44.203Z,4.60
2018-03-23T11:47:11.613Z,6.17
2018-03-23T11:49:39.023Z,6.83
2018-03-23T11:52:06.499Z,5.87
2018-03-23T11:54:33.908Z,8.60
2018-03-23T11:57:01.323Z,8.60
2018-03-23T11:59:28.740Z,6.93
2018-03-23T12:01:56.160Z,6.50
2018-03-23T12:04:23.615Z,7.77
2018-03-23T12:06:51.036Z,9.70
2018-03-23T12:09:18.497Z,8.73
2018-03-23T12:11:45.920Z,7.13
2018-03-23T12:14:13.394Z,8.80
2018-03-23T12:16:40.756Z,7.50
2018-03-23T12:19:08.979Z,8.80
2018-03-23T12:21:36.431Z,9.90
2018-03-23T12:24:03.824Z,8.03
2018-03-23T12:26:31.249Z,8.77
2018-03-23T12:28:59.439Z,8.13
2018-03-23T12:31:26.916Z,8.77
2018-03-23T12:33:54.328Z,9.07
2018-03-23T12:36:21.750Z,8.47
2018-03-23T12:38:49.180Z,7.37
2018-03-23T12:41:17.375Z,8.20
2018-03-23T12:43:44.784Z,8.07
2018-03-23T12:46:12.211Z,10.07
2018-03-23T12:48:40.420Z,11.57
2018-03-23T12:51:07.831Z,10.43
2018-03-23T12:53:35.259Z,11.47
2018-03-23T12:56:03.461Z,10.30
2018-03-23T12:58:30.876Z,12.57
2018-03-23T13:00:58.300Z,11.70
2018-03-23T13:03:26.493Z,10.90
2018-03-23T13:05:53.907Z,11.40
2018-03-23T13:08:22.110Z,11.70
2018-03-23T13:10:49.536Z,11.30
2018-03-23T13:13:16.961Z,10.20
2018-03-23T13:15:44.385Z,14.50
2018-03-23T13:18:12.594Z,12.43
2018-03-23T13:20:40.013Z,11.00
2018-03-23T13:23:07.573Z,12.47
2018-03-23T13:25:35.006Z,16.70
2018-03-23T13:28:02.440Z,9.37
2018-03-23T13:30:29.861Z,10.70
2018-03-23T13:32:57.290Z,10.63
2018-03-23T13:35:25.476Z,9.13
2018-03-23T13:37:52.904Z,10.30
2018-03-23T13:40:20.396Z,11.23
2018-03-23T13:42:47.811Z,9.53
2018-03-23T13:45:15.231Z,9.17
2018-03-23T13:47:42.647Z,8.87
2018-03-23T13:50:10.912Z,9.83
2018-03-23T13:52:38.307Z,10.17
2018-03-23T13:55:05.747Z,7.60
2018-03-23T13:57:33.208Z,8.90
2018-03-23T14:00:00.624Z,8.63
2018-03-23T14:02:28.067Z,9.13
2018-03-23T14:04:56.212Z,9.07
2018-03-23T14:07:23.640Z,8.50
2018-03-23T14:09:51.063Z,8.73
2018-03-23T14:12:19.257Z,8.87
2018-03-23T14:14:46.682Z,9.83
2018-03-23T14:17:14.101Z,9.43
2018-03-23T14:19:42.284Z,8.50
2018-03-23T14:22:09.704Z,9.23
2018-03-23T14:24:37.888Z,9.83
2018-03-23T14:27:05.300Z,8.07
2018-03-23T14:29:33.533Z,8.83
2018-03-23T14:32:00.960Z,7.70
2018-03-23T14:34:28.380Z,8.93
2018-03-23T14:36:55.797Z,8.57
2018-03-23T14:39:23.228Z,9.47
2018-03-23T14:41:51.443Z,8.43
2018-03-23T14:44:18.877Z,8.23
2018-03-23T14:46:46.320Z,8.00
2018-03-23T14:49:13.727Z,7.50
2018-03-23T14:51:41.148Z,6.90
2018-03-23T14:54:09.336Z,6.47
2018-03-23T14:56:36.752Z,6.83
2018-03-23T14:59:10.647Z,6.97
2018-03-23T15:01:38.021Z,7.40
2018-03-23T15:04:05.589Z,7.30
2018-03-23T15:06:33.013Z,7.00
2018-03-23T15:09:00.427Z,6.80
2018-03-23T15:11:27.864Z,7.13
2018-03-23T15:16:55.617Z,6.47
2018-03-23T15:19:23.798Z,6.23
2018-03-23T15:21:51.212Z,6.00
2018-03-23T15:24:19.395Z,6.10
2018-03-23T15:26:46.815Z,5.80
2018-03-23T15:29:15.003Z,5.77
2018-03-23T15:31:42.456Z,5.57
2018-03-23T15:34:09.873Z,5.83
2018-03-23T15:36:37.332Z,5.47
2018-03-23T15:39:04.744Z,5.60
2018-03-23T15:41:32.947Z,6.60
2018-03-23T15:44:00.376Z,5.40
2018-03-23T15:46:27.802Z,5.60
2018-03-23T15:48:55.224Z,5.53
2018-03-23T15:51:22.651Z,6.37
2018-03-23T15:53:50.840Z,5.33
2018-03-23T15:56:18.272Z,6.03
2018-03-23T15:58:46.449Z,7.27
2018-03-23T16:01:13.869Z,6.57
2018-03-23T16:03:42.076Z,6.40
2018-03-23T16:06:09.515Z,7.77
2018-03-23T16:08:36.944Z,10.20
2018-03-23T16:11:04.376Z,7.23
2018-03-23T16:13:31.800Z,7.97
2018-03-23T16:15:59.209Z,8.60
2018-03-23T16:18:26.633Z,8.70
2018-03-23T16:20:54.081Z,8.40
2018-03-23T16:23:21.488Z,7.80
2018-03-23T16:25:48.909Z,8.10
2018-03-23T16:28:16.340Z,11.30
2018-03-23T16:30:44.541Z,8.80
2018-03-23T16:33:11.956Z,8.20
2018-03-23T16:35:39.381Z,9.17
2018-03-23T16:38:07.552Z,8.73
2018-03-23T16:40:34.975Z,10.23
2018-03-23T16:43:03.180Z,10.30
2018-03-23T16:45:30.627Z,8.80
2018-03-23T16:47:58.056Z,9.20
2018-03-23T16:50:25.472Z,10.90
2018-03-23T16:52:52.911Z,10.13
2018-03-23T16:55:20.332Z,10.90
2018-03-23T16:57:48.528Z,10.93
2018-03-23T17:00:15.948Z,10.30
2018-03-23T17:02:44.136Z,9.43
2018-03-23T17:05:11.560Z,12.77
2018-03-23T17:07:38.976Z,12.37
2018-03-23T17:10:07.168Z,10.23
2018-03-23T17:12:34.610Z,9.60
2018-03-23T17:15:02.033Z,9.37
2018-03-23T17:17:30.215Z,10.23
2018-03-23T17:19:57.645Z,10.07
2018-03-23T17:22:25.832Z,10.90
2018-03-23T17:24:53.252Z,10.07
2018-03-23T17:27:20.674Z,13.03
2018-03-23T17:29:48.104Z,10.27
2018-03-23T17:32:16.320Z,10.47
2018-03-23T17:34:43.767Z,10.07
2018-03-23T17:37:11.195Z,10.00
2018-03-23T17:39:38.649Z,11.10
2018-03-23T17:42:06.100Z,10.17
2018-03-23T17:44:33.539Z,10.37
2018-03-23T17:47:00.949Z,10.90
2018-03-23T17:49:28.365Z,9.90
2018-03-23T17:51:56.548Z,10.07
2018-03-23T17:54:23.967Z,10.50
2018-03-23T17:56:51.408Z,13.37
2018-03-23T17:59:18.821Z,10.47
2018-03-23T18:01:46.244Z,11.00
2018-03-23T18:04:13.681Z,12.77
2018-03-23T18:06:41.132Z,14.50
2018-03-23T18:09:12.916Z,11.03
2018-03-23T18:11:40.368Z,12.40
2018-03-23T18:14:08.566Z,11.63
2018-03-23T18:16:35.996Z,14.17
2018-03-23T18:19:03.427Z,13.23
2018-03-23T18:21:30.855Z,14.30
2018-03-23T18:23:58.301Z,15.83
2018-03-23T18:26:25.724Z,13.83
2018-03-23T18:28:53.144Z,14.93
2018-03-23T18:31:20.582Z,15.47
2018-03-23T18:33:48.013Z,14.93
2018-03-23T18:36:16.947Z,15.47
2018-03-23T18:38:44.372Z,14.03
2018-03-23T18:41:11.795Z,16.00
2018-03-23T18:43:40.003Z,14.90
2018-03-23T18:46:07.456Z,16.13
2018-03-23T18:48:34.892Z,16.17
2018-03-23T18:51:02.329Z,15.60
2018-03-23T18:53:29.774Z,14.87
2018-03-23T18:55:57.204Z,16.40
2018-03-23T18:58:24.665Z,17.00
2018-03-23T19:00:52.089Z,16.90
2018-03-23T19:03:19.524Z,15.90
2018-03-23T19:05:46.956Z,19.10
2018-03-23T19:08:14.375Z,17.20
2018-03-23T19:10:42.568Z,16.40
2018-03-23T19:13:09.996Z,16.33
2018-03-23T19:15:37.513Z,18.60
2018-03-23T19:18:06.031Z,17.63
2018-03-23T19:20:33.472Z,17.30
2018-03-23T19:23:00.913Z,17.10
2018-03-23T19:25:28.348Z,17.80
2018-03-23T19:27:55.788Z,21.63
2018-03-23T19:30:23.268Z,18.37
2018-03-23T19:32:51.497Z,19.57
2018-03-23T19:35:18.908Z,23.93
2018-03-23T19:37:46.341Z,21.00
2018-03-23T19:40:14.520Z,20.57
2018-03-23T19:42:41.956Z,18.73
2018-03-23T19:45:09.421Z,18.53
2018-03-23T19:47:36.819Z,18.67
2018-03-23T19:50:05.008Z,18.20
2018-03-23T19:52:32.454Z,20.77
2018-03-23T19:54:59.934Z,23.17
2018-03-23T19:57:27.348Z,20.30
2018-03-23T19:59:54.780Z,20.00
2018-03-23T20:02:22.229Z,20.03
2018-03-23T20:04:49.664Z,21.93
2018-03-23T20:07:17.094Z,23.90
2018-03-23T20:09:44.514Z,23.80
2018-03-23T20:12:12.710Z,24.33
2018-03-23T20:14:40.148Z,22.30
2018-03-23T20:17:07.576Z,22.50
2018-03-23T20:19:35.054Z,21.77
2018-03-23T20:22:02.479Z,23.20
2018-03-23T20:24:29.913Z,23.53
2018-03-23T20:27:03.100Z,25.97
2018-03-23T20:29:30.541Z,26.70
2018-03-23T20:32:03.548Z,25.30
2018-03-23T20:34:30.992Z,27.90
2018-03-23T20:36:58.423Z,24.03
2018-03-23T20:39:27.370Z,24.87
2018-03-23T20:41:54.796Z,27.60
2018-03-23T20:44:22.216Z,25.60
2018-03-23T20:46:49.636Z,26.87
2018-03-23T20:49:17.832Z,25.93
2018-03-23T20:51:45.248Z,26.47
2018-03-23T20:54:13.448Z,28.47
2018-03-23T20:56:40.875Z,29.30
2018-03-23T20:59:08.296Z,28.10
2018-03-23T21:01:36.511Z,28.73
2018-03-23T21:04:03.931Z,27.87
2018-03-23T21:06:31.351Z,32.23
2018-03-23T21:08:58.779Z,27.43
2018-03-23T21:11:27.001Z,31.40
2018-03-23T21:13:54.433Z,29.00
2018-03-23T21:16:21.856Z,27.20
2018-03-23T21:18:49.295Z,30.63
2018-03-23T21:21:16.750Z,31.87
2018-03-23T21:23:44.185Z,24.47
2018-03-23T21:26:11.657Z,24.27
2018-03-23T21:28:39.107Z,22.80
2018-03-23T21:31:07.328Z,28.50
2018-03-23T21:33:34.743Z,23.27
2018-03-23T21:36:02.175Z,25.53
2018-03-23T21:38:29.623Z,23.93
2018-03-23T21:40:57.048Z,28.00
2018-03-23T21:43:25.236Z,25.00
2018-03-23T21:45:52.664Z,26.23
2018-03-23T21:48:20.087Z,27.17
2018-03-23T21:50:48.956Z,24.90
2018-03-23T21:53:17.144Z,30.77
2018-03-23T21:55:44.584Z,23.63
2018-03-23T21:58:12.064Z,27.10
2018-03-23T22:00:39.500Z,26.83
2018-03-23T22:03:06.927Z,28.00
2018-03-23T22:05:34.348Z,29.43
2018-03-23T22:08:01.768Z,27.63
2018-03-23T22:10:29.971Z,24.37
2018-03-23T22:12:57.388Z,24.57
2018-03-23T22:15:24.828Z,24.57
2018-03-23T22:17:52.268Z,25.73
2018-03-23T22:20:19.708Z,25.13
2018-03-23T22:22:47.136Z,30.97
2018-03-23T22:25:15.344Z,22.27
2018-03-23T22:27:42.803Z,26.87
2018-03-23T22:30:10.210Z,29.87
2018-03-23T22:32:37.655Z,24.80
2018-03-23T22:35:05.121Z,26.43
2018-03-23T22:37:32.567Z,25.63
2018-03-23T22:40:00.011Z,26.40
2018-03-23T22:42:27.443Z,26.00
2018-03-23T22:44:54.859Z,27.13
2018-03-23T22:47:22.292Z,29.43
2018-03-23T22:49:49.736Z,28.73
2018-03-23T22:52:17.931Z,27.70
2018-03-23T22:54:45.364Z,29.40
2018-03-23T22:57:12.798Z,26.73
2018-03-23T22:59:40.239Z,29.43
2018-03-23T23:02:07.669Z,29.50
2018-03-23T23:04:35.100Z,28.63
2018-03-23T23:07:02.543Z,29.70
2018-03-23T23:09:30.736Z,29.00
2018-03-23T23:11:58.166Z,28.30
2018-03-23T23:14:25.619Z,28.40
2018-03-23T23:16:53.015Z,30.23
2018-03-23T23:19:21.224Z,26.13
2018-03-23T23:21:48.664Z,27.33
2018-03-23T23:24:16.104Z,25.70
2018-03-23T23:26:43.532Z,27.67
2018-03-23T23:29:10.992Z,31.40
2018-03-23T23:31:38.420Z,25.10
2018-03-23T23:34:05.849Z,26.70
2018-03-23T23:36:33.282Z,26.00
2018-03-23T23:39:00.720Z,28.87
2018-03-23T23:41:28.163Z,26.43
2018-03-23T23:43:55.580Z,31.73
2018-03-23T23:46:23.771Z,30.20
2018-03-23T23:48:51.216Z,27.10
2018-03-23T23:51:18.624Z,31.33
2018-03-23T23:53:46.811Z,29.77
2018-03-23T23:56:14.251Z,30.77
2018-03-23T23:58:41.705Z,33.93
